Station Historical Data
Daily Summary for January 23, 2018 Units:  Both    English   Metric
« Previous Day
Next Day »
Daily Weekly Monthly Yearly Custom
  High: Low: Average:
Temperature: 52.2 °F /  11.2 °C 33.7 °F /  0.9 °C 41.9 °F /  5.5 °C
Dew Point: 45.2 °F /  7.3 °C 29.7 °F /  -1.3 °C 37.6 °F /  3.1 °C
Humidity: 92% 68% 85%
Wind Speed: 25.0mph /  40.2km/h - 8mph /  12.9km/h
Wind Gust: 34.0mph /  54.7km/h - -
Wind- - SSW
Pressure: 29.69 in /  1005.3 hPa 29.50 in /  998.9 hPa -
Precipitation: 0.25 in /  6.35 mm    
Historical Graphs
 
 
Tabular Data for January 23, 2018
Time Temperature Dew Point Pressure Wind Wind Speed Wind Gust Humidity Rainfall Rate (Hourly)
00:04 48.0 °F /  8.9 °C 44.6 °F /  7 °C 29.63in /  1003.3hPa SSE 1.0mph /  1.6km/h 6.0mph /  9.7km/h 88% 0.03in /  0.76mm
00:09 48.0 °F /  8.9 °C 44.6 °F /  7 °C 29.63in /  1003.3hPa SSE 2.0mph /  3.2km/h 6.0mph /  9.7km/h 88% 0.03in /  0.76mm
00:14 48.0 °F /  8.9 °C 44.6 °F /  7 °C 29.62in /  1002.9hPa SSE 2.0mph /  3.2km/h 7.0mph /  11.3km/h 88% 0.03in /  0.76mm
00:19 48.3 °F /  9.1 °C 44.9 °F /  7.2 °C 29.62in /  1002.9hPa SSE 1.0mph /  1.6km/h 7.0mph /  11.3km/h 88% 0.02in /  0.51mm
00:24 48.7 °F /  9.3 °C 45.0 °F /  7.2 °C 29.61in /  1002.6hPa SSE 4.0mph /  6.4km/h 6.0mph /  9.7km/h 87% 0.02in /  0.51mm
00:29 48.9 °F /  9.4 °C 45.2 °F /  7.3 °C 29.61in /  1002.6hPa SSE 2.0mph /  3.2km/h 5.0mph /  8km/h 87% 0.02in /  0.51mm
00:34 48.7 °F /  9.3 °C 44.7 °F /  7.1 °C 29.60in /  1002.3hPa SSE 1.0mph /  1.6km/h 4.0mph /  6.4km/h 86% 0.01in /  0.25mm
00:39 48.7 °F /  9.3 °C 44.7 °F /  7.1 °C 29.60in /  1002.3hPa SSE 2.0mph /  3.2km/h 5.0mph /  8km/h 86% 0.01in /  0.25mm
00:49 48.7 °F /  9.3 °C 44.4 °F /  6.9 °C 29.59in /  1001.9hPa SSE 2.0mph /  3.2km/h 5.0mph /  8km/h 85% 0.01in /  0.25mm
00:54 48.8 °F /  9.3 °C 44.5 °F /  6.9 °C 29.59in /  1001.9hPa SSE 3.0mph /  4.8km/h 5.0mph /  8km/h 85% 0.00in /  0mm
00:59 48.9 °F /  9.4 °C 44.6 °F /  7 °C 29.59in /  1001.9hPa SSE 5.0mph /  8km/h 7.0mph /  11.3km/h 85% 0.00in /  0mm
01:04 49.1 °F /  9.5 °C 44.5 °F /  6.9 °C 29.58in /  1001.6hPa SSE 4.0mph /  6.4km/h 6.0mph /  9.7km/h 84% 0.00in /  0mm
01:09 49.2 °F /  9.6 °C 44.6 °F /  7 °C 29.59in /  1001.9hPa SE 3.0mph /  4.8km/h 6.0mph /  9.7km/h 84% 0.00in /  0mm
01:14 49.4 °F /  9.7 °C 44.5 °F /  6.9 °C 29.58in /  1001.6hPa SSE 3.0mph /  4.8km/h 6.0mph /  9.7km/h 83% 0.00in /  0mm
01:19 49.6 °F /  9.8 °C 44.6 °F /  7 °C 29.58in /  1001.6hPa SSE 4.0mph /  6.4km/h 11.0mph /  17.7km/h 83% 0.00in /  0mm
01:24 49.9 °F /  9.9 °C 44.6 °F /  7 °C 29.58in /  1001.6hPa South 4.0mph /  6.4km/h 11.0mph /  17.7km/h 82% 0.00in /  0mm
01:29 50.1 °F /  10.1 °C 44.5 °F /  6.9 °C 29.57in /  1001.2hPa SSW 7.0mph /  11.3km/h 10.0mph /  16.1km/h 81% 0.00in /  0mm
01:34 50.4 °F /  10.2 °C 44.8 °F /  7.1 °C 29.57in /  1001.2hPa SSE 5.0mph /  8km/h 14.0mph /  22.5km/h 81% 0.00in /  0mm
01:39 50.6 °F /  10.3 °C 44.7 °F /  7.1 °C 29.57in /  1001.2hPa SE 6.0mph /  9.7km/h 11.0mph /  17.7km/h 80% 0.00in /  0mm
01:44 50.6 °F /  10.3 °C 44.3 °F /  6.8 °C 29.57in /  1001.2hPa SSE 5.0mph /  8km/h 11.0mph /  17.7km/h 79% 0.00in /  0mm
01:49 50.6 °F /  10.3 °C 44.0 °F /  6.7 °C 29.56in /  1000.9hPa SSE 5.0mph /  8km/h 12.0mph /  19.3km/h 78% 0.00in /  0mm
01:54 50.7 °F /  10.4 °C 44.1 °F /  6.7 °C 29.56in /  1000.9hPa SSE 6.0mph /  9.7km/h 15.0mph /  24.1km/h 78% 0.00in /  0mm
02:09 50.7 °F /  10.4 °C 43.8 °F /  6.6 °C 29.54in /  1000.2hPa SE 2.0mph /  3.2km/h 16.0mph /  25.7km/h 77% 0.00in /  0mm
02:14 50.7 °F /  10.4 °C 43.8 °F /  6.6 °C 29.54in /  1000.2hPa SSE 13.0mph /  20.9km/h 13.0mph /  20.9km/h 77% 0.00in /  0mm
02:19 50.8 °F /  10.4 °C 43.8 °F /  6.6 °C 29.53in /  999.9hPa SSE 6.0mph /  9.7km/h 15.0mph /  24.1km/h 77% 0.00in /  0mm
02:24 50.7 °F /  10.4 °C 43.8 °F /  6.6 °C 29.53in /  999.9hPa SSE 6.0mph /  9.7km/h 15.0mph /  24.1km/h 77% 0.00in /  0mm
02:29 50.8 °F /  10.4 °C 43.8 °F /  6.6 °C 29.53in /  999.9hPa SSE 5.0mph /  8km/h 10.0mph /  16.1km/h 77% 0.00in /  0mm
02:34 51.0 °F /  10.6 °C 44.0 °F /  6.7 °C 29.52in /  999.5hPa SSE 9.0mph /  14.5km/h 11.0mph /  17.7km/h 77% 0.00in /  0mm
02:44 51.5 °F /  10.8 °C 44.2 °F /  6.8 °C 29.52in /  999.5hPa South 6.0mph /  9.7km/h 15.0mph /  24.1km/h 76% 0.00in /  0mm
02:49 51.7 °F /  10.9 °C 44.4 °F /  6.9 °C 29.51in /  999.2hPa SSE 7.0mph /  11.3km/h 15.0mph /  24.1km/h 76% 0.00in /  0mm
02:59 51.8 °F /  11 °C 44.5 °F /  6.9 °C 29.51in /  999.2hPa SSE 8.0mph /  12.9km/h 19.0mph /  30.6km/h 76% 0.00in /  0mm
03:04 52.0 °F /  11.1 °C 44.7 °F /  7.1 °C 29.51in /  999.2hPa SSE 8.0mph /  12.9km/h 19.0mph /  30.6km/h 76% 0.00in /  0mm
03:09 52.2 °F /  11.2 °C 44.9 °F /  7.2 °C 29.50in /  998.9hPa SSE 9.0mph /  14.5km/h 19.0mph /  30.6km/h 76% 0.00in /  0mm
03:14 52.1 °F /  11.2 °C 44.8 °F /  7.1 °C 29.50in /  998.9hPa SSE 7.0mph /  11.3km/h 17.0mph /  27.4km/h 76% 0.00in /  0mm
03:19 52.0 °F /  11.1 °C 44.7 °F /  7.1 °C 29.50in /  998.9hPa SSE 11.0mph /  17.7km/h 18.0mph /  29km/h 76% 0.00in /  0mm
03:24 52.0 °F /  11.1 °C 44.7 °F /  7.1 °C 29.52in /  999.5hPa South 9.0mph /  14.5km/h 18.0mph /  29km/h 76% 0.00in /  0mm
03:29 52.0 °F /  11.1 °C 45.0 °F /  7.2 °C 29.53in /  999.9hPa South 8.0mph /  12.9km/h 18.0mph /  29km/h 77% 0.00in /  0mm
03:34 52.2 °F /  11.2 °C 45.2 °F /  7.3 °C 29.56in /  1000.9hPa SSW 25.0mph /  40.2km/h 25.0mph /  40.2km/h 77% 0.00in /  0mm
03:39 51.4 °F /  10.8 °C 44.4 °F /  6.9 °C 29.57in /  1001.2hPa SSW 11.0mph /  17.7km/h 33.0mph /  53.1km/h 77% 0.01in /  0.25mm
03:44 49.5 °F /  9.7 °C 42.9 °F /  6.1 °C 29.58in /  1001.6hPa WSW 10.0mph /  16.1km/h 23.0mph /  37km/h 78% 0.01in /  0.25mm
03:49 47.5 °F /  8.6 °C 41.6 °F /  5.3 °C 29.58in /  1001.6hPa SW 8.0mph /  12.9km/h 18.0mph /  29km/h 80% 0.01in /  0.25mm
03:54 46.1 °F /  7.8 °C 40.9 °F /  4.9 °C 29.58in /  1001.6hPa WSW 10.0mph /  16.1km/h 18.0mph /  29km/h 82% 0.01in /  0.25mm
04:04 44.4 °F /  6.9 °C 39.9 °F /  4.4 °C 29.59in /  1001.9hPa WSW 8.0mph /  12.9km/h 14.0mph /  22.5km/h 84% 0.03in /  0.76mm
04:09 43.8 °F /  6.6 °C 39.6 °F /  4.2 °C 29.59in /  1001.9hPa WSW 7.0mph /  11.3km/h 15.0mph /  24.1km/h 85% 0.05in /  1.27mm
04:14 43.1 °F /  6.2 °C 38.9 °F /  3.8 °C 29.59in /  1001.9hPa SW 6.0mph /  9.7km/h 15.0mph /  24.1km/h 85% 0.06in /  1.52mm
04:19 42.4 °F /  5.8 °C 38.5 °F /  3.6 °C 29.59in /  1001.9hPa SW 7.0mph /  11.3km/h 15.0mph /  24.1km/h 86% 0.08in /  2.03mm
04:24 41.8 °F /  5.4 °C 38.2 °F /  3.4 °C 29.60in /  1002.3hPa SSW 6.0mph /  9.7km/h 15.0mph /  24.1km/h 87% 0.10in /  2.54mm
04:29 41.4 °F /  5.2 °C 37.8 °F /  3.2 °C 29.60in /  1002.3hPa SW 7.0mph /  11.3km/h 18.0mph /  29km/h 87% 0.11in /  2.79mm
04:34 41.2 °F /  5.1 °C 37.9 °F /  3.3 °C 29.59in /  1001.9hPa WSW 6.0mph /  9.7km/h 18.0mph /  29km/h 88% 0.12in /  3.05mm
04:44 41.1 °F /  5.1 °C 38.1 °F /  3.4 °C 29.59in /  1001.9hPa SW 4.0mph /  6.4km/h 10.0mph /  16.1km/h 89% 0.13in /  3.3mm
04:49 41.2 °F /  5.1 °C 38.2 °F /  3.4 °C 29.59in /  1001.9hPa SW 7.0mph /  11.3km/h 9.0mph /  14.5km/h 89% 0.14in /  3.56mm
04:54 41.3 °F /  5.2 °C 38.6 °F /  3.7 °C 29.59in /  1001.9hPa SSW 5.0mph /  8km/h 7.0mph /  11.3km/h 90% 0.15in /  3.81mm
04:59 41.5 °F /  5.3 °C 38.8 °F /  3.8 °C 29.58in /  1001.6hPa SW 6.0mph /  9.7km/h 13.0mph /  20.9km/h 90% 0.15in /  3.81mm
05:09 41.8 °F /  5.4 °C 39.1 °F /  3.9 °C 29.59in /  1001.9hPa SSW 4.0mph /  6.4km/h 9.0mph /  14.5km/h 90% 0.15in /  3.81mm
05:19 42.4 °F /  5.8 °C 40.0 °F /  4.4 °C 29.60in /  1002.3hPa SSW 4.0mph /  6.4km/h 8.0mph /  12.9km/h 91% 0.13in /  3.3mm
05:24 42.7 °F /  5.9 °C 40.3 °F /  4.6 °C 29.59in /  1001.9hPa SW 2.0mph /  3.2km/h 7.0mph /  11.3km/h 91% 0.11in /  2.79mm
05:29 42.8 °F /  6 °C 40.4 °F /  4.7 °C 29.58in /  1001.6hPa SSW 4.0mph /  6.4km/h 7.0mph /  11.3km/h 91% 0.11in /  2.79mm
05:34 42.9 °F /  6.1 °C 40.5 °F /  4.7 °C 29.58in /  1001.6hPa South 3.0mph /  4.8km/h 7.0mph /  11.3km/h 91% 0.10in /  2.54mm
05:39 42.9 °F /  6.1 °C 40.5 °F /  4.7 °C 29.57in /  1001.2hPa South 3.0mph /  4.8km/h 4.0mph /  6.4km/h 91% 0.09in /  2.29mm
05:44 43.0 °F /  6.1 °C 40.6 °F /  4.8 °C 29.57in /  1001.2hPa SSE 2.0mph /  3.2km/h 5.0mph /  8km/h 91% 0.08in /  2.03mm
05:49 43.2 °F /  6.2 °C 40.8 °F /  4.9 °C 29.55in /  1000.6hPa SSE 3.0mph /  4.8km/h 4.0mph /  6.4km/h 91% 0.07in /  1.78mm
05:54 43.4 °F /  6.3 °C 40.9 °F /  4.9 °C 29.56in /  1000.9hPa SSW 2.0mph /  3.2km/h 5.0mph /  8km/h 91% 0.06in /  1.52mm
05:59 43.2 °F /  6.2 °C 40.8 °F /  4.9 °C 29.55in /  1000.6hPa Calm   3.0mph /  4.8km/h 91% 0.05in /  1.27mm
06:04 43.1 °F /  6.2 °C 40.7 °F /  4.8 °C 29.56in /  1000.9hPa SSW 2.0mph /  3.2km/h 4.0mph /  6.4km/h 91% 0.03in /  0.76mm
06:09 42.9 °F /  6.1 °C 40.5 °F /  4.7 °C 29.54in /  1000.2hPa SSW 1.0mph /  1.6km/h 4.0mph /  6.4km/h 91% 0.02in /  0.51mm
06:19 42.5 °F /  5.8 °C 40.1 °F /  4.5 °C 29.56in /  1000.9hPa Calm     91% 0.01in /  0.25mm
06:29 42.2 °F /  5.7 °C 40.0 °F /  4.4 °C 29.56in /  1000.9hPa Calm     92% 0.00in /  0mm
06:34 42.2 °F /  5.7 °C 40.0 °F /  4.4 °C 29.56in /  1000.9hPa South 1.0mph /  1.6km/h 3.0mph /  4.8km/h 92% 0.00in /  0mm
06:39 42.4 °F /  5.8 °C 40.2 °F /  4.6 °C 29.56in /  1000.9hPa South 1.0mph /  1.6km/h 4.0mph /  6.4km/h 92% 0.00in /  0mm
06:44 42.5 °F /  5.8 °C 40.3 °F /  4.6 °C 29.55in /  1000.6hPa Calm   3.0mph /  4.8km/h 92% 0.00in /  0mm
06:49 42.8 °F /  6 °C 40.6 °F /  4.8 °C 29.53in /  999.9hPa SE 1.0mph /  1.6km/h 4.0mph /  6.4km/h 92% 0.00in /  0mm
06:54 42.8 °F /  6 °C 40.6 °F /  4.8 °C 29.53in /  999.9hPa Calm   2.0mph /  3.2km/h 92% 0.00in /  0mm
06:59 42.8 °F /  6 °C 40.6 °F /  4.8 °C 29.54in /  1000.2hPa Calm     92% 0.00in /  0mm
07:04 42.6 °F /  5.9 °C 40.4 °F /  4.7 °C 29.54in /  1000.2hPa Calm     92% 0.00in /  0mm
07:09 42.6 °F /  5.9 °C 40.4 °F /  4.7 °C 29.54in /  1000.2hPa Calm     92% 0.00in /  0mm
07:14 42.6 °F /  5.9 °C 40.4 °F /  4.7 °C 29.54in /  1000.2hPa Calm     92% 0.00in /  0mm
07:19 42.4 °F /  5.8 °C 40.2 °F /  4.6 °C 29.54in /  1000.2hPa Calm     92% 0.00in /  0mm
07:24 42.3 °F /  5.7 °C 40.1 °F /  4.5 °C 29.55in /  1000.6hPa Calm     92% 0.00in /  0mm
07:29 42.4 °F /  5.8 °C 40.2 °F /  4.6 °C 29.55in /  1000.6hPa Calm   4.0mph /  6.4km/h 92% 0.00in /  0mm
07:39 42.9 °F /  6.1 °C 40.7 °F /  4.8 °C 29.55in /  1000.6hPa SSE 2.0mph /  3.2km/h 5.0mph /  8km/h 92% 0.00in /  0mm
07:44 43.1 °F /  6.2 °C 40.9 °F /  4.9 °C 29.53in /  999.9hPa South 1.0mph /  1.6km/h 4.0mph /  6.4km/h 92% 0.00in /  0mm
07:49 43.2 °F /  6.2 °C 41.0 °F /  5 °C 29.53in /  999.9hPa South 1.0mph /  1.6km/h 3.0mph /  4.8km/h 92% 0.00in /  0mm
07:54 43.3 °F /  6.3 °C 41.1 °F /  5.1 °C 29.53in /  999.9hPa South 2.0mph /  3.2km/h 4.0mph /  6.4km/h 92% 0.00in /  0mm
08:04 43.5 °F /  6.4 °C 41.3 °F /  5.2 °C 29.53in /  999.9hPa SSW 4.0mph /  6.4km/h 5.0mph /  8km/h 92% 0.00in /  0mm
08:09 43.5 °F /  6.4 °C 41.3 °F /  5.2 °C 29.53in /  999.9hPa SSW 2.0mph /  3.2km/h 4.0mph /  6.4km/h 92% 0.00in /  0mm
08:14 43.6 °F /  6.4 °C 41.4 °F /  5.2 °C 29.54in /  1000.2hPa Calm   4.0mph /  6.4km/h 92% 0.00in /  0mm
08:19 43.6 °F /  6.4 °C 41.4 °F /  5.2 °C 29.54in /  1000.2hPa SSW 2.0mph /  3.2km/h 4.0mph /  6.4km/h 92% 0.00in /  0mm
08:29 44.0 °F /  6.7 °C 41.8 °F /  5.4 °C 29.55in /  1000.6hPa SSW 2.0mph /  3.2km/h 6.0mph /  9.7km/h 92% 0.00in /  0mm
08:34 44.0 °F /  6.7 °C 41.8 °F /  5.4 °C 29.54in /  1000.2hPa SSW 2.0mph /  3.2km/h 6.0mph /  9.7km/h 92% 0.00in /  0mm
08:44 44.4 °F /  6.9 °C 42.2 °F /  5.7 °C 29.53in /  999.9hPa SSW 2.0mph /  3.2km/h 6.0mph /  9.7km/h 92% 0.00in /  0mm
08:54 45.1 °F /  7.3 °C 42.6 °F /  5.9 °C 29.53in /  999.9hPa SW 3.0mph /  4.8km/h 8.0mph /  12.9km/h 91% 0.00in /  0mm
08:59 45.4 °F /  7.4 °C 42.9 °F /  6.1 °C 29.53in /  999.9hPa SSW 2.0mph /  3.2km/h 10.0mph /  16.1km/h 91% 0.00in /  0mm
09:04 45.7 °F /  7.6 °C 42.9 °F /  6.1 °C 29.53in /  999.9hPa SSW 7.0mph /  11.3km/h 7.0mph /  11.3km/h 90% 0.00in /  0mm
09:09 45.8 °F /  7.7 °C 43.0 °F /  6.1 °C 29.53in /  999.9hPa SW 4.0mph /  6.4km/h 10.0mph /  16.1km/h 90% 0.00in /  0mm
09:14 45.9 °F /  7.7 °C 42.8 °F /  6 °C 29.53in /  999.9hPa SSW 3.0mph /  4.8km/h 7.0mph /  11.3km/h 89% 0.00in /  0mm
09:19 46.2 °F /  7.9 °C 43.1 °F /  6.2 °C 29.53in /  999.9hPa SSW 6.0mph /  9.7km/h 12.0mph /  19.3km/h 89% 0.00in /  0mm
09:24 46.2 °F /  7.9 °C 42.8 °F /  6 °C 29.53in /  999.9hPa SSW 4.0mph /  6.4km/h 12.0mph /  19.3km/h 88% 0.00in /  0mm
09:29 46.2 °F /  7.9 °C 42.5 °F /  5.8 °C 29.53in /  999.9hPa SW 7.0mph /  11.3km/h 16.0mph /  25.7km/h 87% 0.00in /  0mm
09:34 46.1 °F /  7.8 °C 41.8 °F /  5.4 °C 29.53in /  999.9hPa SW 8.0mph /  12.9km/h 19.0mph /  30.6km/h 85% 0.00in /  0mm
09:44 46.4 °F /  8 °C 40.2 °F /  4.6 °C 29.51in /  999.2hPa SSW 7.0mph /  11.3km/h 18.0mph /  29km/h 79% 0.00in /  0mm
09:54 46.8 °F /  8.2 °C 39.3 °F /  4.1 °C 29.52in /  999.5hPa South 7.0mph /  11.3km/h 15.0mph /  24.1km/h 75% 0.00in /  0mm
09:59 46.8 °F /  8.2 °C 39.3 °F /  4.1 °C 29.52in /  999.5hPa South 7.0mph /  11.3km/h 12.0mph /  19.3km/h 75% 0.00in /  0mm
10:04 46.7 °F /  8.2 °C 39.5 °F /  4.2 °C 29.52in /  999.5hPa South 7.0mph /  11.3km/h 13.0mph /  20.9km/h 76% 0.00in /  0mm
10:09 46.6 °F /  8.1 °C 39.4 °F /  4.1 °C 29.51in /  999.2hPa SSW 7.0mph /  11.3km/h 12.0mph /  19.3km/h 76% 0.00in /  0mm
10:14 46.7 °F /  8.2 °C 39.2 °F /  4 °C 29.51in /  999.2hPa SW 8.0mph /  12.9km/h 16.0mph /  25.7km/h 75% 0.00in /  0mm
10:19 46.7 °F /  8.2 °C 39.2 °F /  4 °C 29.51in /  999.2hPa South 4.0mph /  6.4km/h 14.0mph /  22.5km/h 75% 0.00in /  0mm
10:24 47.4 °F /  8.6 °C 39.9 °F /  4.4 °C 29.51in /  999.2hPa SW 7.0mph /  11.3km/h 11.0mph /  17.7km/h 75% 0.00in /  0mm
10:29 47.9 °F /  8.8 °C 40.0 °F /  4.4 °C 29.51in /  999.2hPa South 6.0mph /  9.7km/h 12.0mph /  19.3km/h 74% 0.00in /  0mm
10:34 48.3 °F /  9.1 °C 40.0 °F /  4.4 °C 29.51in /  999.2hPa South 6.0mph /  9.7km/h 12.0mph /  19.3km/h 73% 0.00in /  0mm
10:39 49.0 °F /  9.4 °C 40.0 °F /  4.4 °C 29.50in /  998.9hPa SSW 6.0mph /  9.7km/h 13.0mph /  20.9km/h 71% 0.00in /  0mm
10:49 49.1 °F /  9.5 °C 39.4 °F /  4.1 °C 29.51in /  999.2hPa SW 7.0mph /  11.3km/h 15.0mph /  24.1km/h 69% 0.00in /  0mm
10:54 48.6 °F /  9.2 °C 38.5 °F /  3.6 °C 29.52in /  999.5hPa SW 8.0mph /  12.9km/h 16.0mph /  25.7km/h 68% 0.00in /  0mm
10:59 47.6 °F /  8.7 °C 38.3 °F /  3.5 °C 29.53in /  999.9hPa WSW 9.0mph /  14.5km/h 20.0mph /  32.2km/h 70% 0.00in /  0mm
11:04 45.2 °F /  7.3 °C 37.1 °F /  2.8 °C 29.53in /  999.9hPa WSW 15.0mph /  24.1km/h 22.0mph /  35.4km/h 73% 0.00in /  0mm
11:09 43.1 °F /  6.2 °C 36.4 °F /  2.4 °C 29.53in /  999.9hPa WSW 8.0mph /  12.9km/h 19.0mph /  30.6km/h 77% 0.00in /  0mm
11:19 41.1 °F /  5.1 °C 35.1 °F /  1.7 °C 29.54in /  1000.2hPa WSW 14.0mph /  22.5km/h 20.0mph /  32.2km/h 79% 0.00in /  0mm
11:29 39.4 °F /  4.1 °C 34.4 °F /  1.3 °C 29.54in /  1000.2hPa WSW 12.0mph /  19.3km/h 21.0mph /  33.8km/h 82% 0.01in /  0.25mm
11:34 38.6 °F /  3.7 °C 33.9 °F /  1.1 °C 29.55in /  1000.6hPa SW 10.0mph /  16.1km/h 18.0mph /  29km/h 83% 0.01in /  0.25mm
11:39 38.1 °F /  3.4 °C 33.7 °F /  0.9 °C 29.55in /  1000.6hPa WSW 8.0mph /  12.9km/h 18.0mph /  29km/h 84% 0.01in /  0.25mm
11:44 37.8 °F /  3.2 °C 33.4 °F /  0.8 °C 29.55in /  1000.6hPa WSW 11.0mph /  17.7km/h 22.0mph /  35.4km/h 84% 0.02in /  0.51mm
11:49 37.7 °F /  3.2 °C 33.6 °F /  0.9 °C 29.55in /  1000.6hPa WSW 11.0mph /  17.7km/h 24.0mph /  38.6km/h 85% 0.02in /  0.51mm
11:54 37.5 °F /  3.1 °C 33.4 °F /  0.8 °C 29.55in /  1000.6hPa WSW 10.0mph /  16.1km/h 24.0mph /  38.6km/h 85% 0.02in /  0.51mm
11:59 37.5 °F /  3.1 °C 33.7 °F /  0.9 °C 29.55in /  1000.6hPa WSW 9.0mph /  14.5km/h 18.0mph /  29km/h 86% 0.02in /  0.51mm
12:04 37.4 °F /  3 °C 33.6 °F /  0.9 °C 29.55in /  1000.6hPa SW 8.0mph /  12.9km/h 17.0mph /  27.4km/h 86% 0.02in /  0.51mm
12:09 37.4 °F /  3 °C 33.6 °F /  0.9 °C 29.56in /  1000.9hPa SW 8.0mph /  12.9km/h 16.0mph /  25.7km/h 86% 0.02in /  0.51mm
12:14 37.1 °F /  2.8 °C 33.3 °F /  0.7 °C 29.56in /  1000.9hPa SW 9.0mph /  14.5km/h 18.0mph /  29km/h 86% 0.02in /  0.51mm
12:19 36.7 °F /  2.6 °C 32.9 °F /  0.5 °C 29.56in /  1000.9hPa SW 9.0mph /  14.5km/h 18.0mph /  29km/h 86% 0.02in /  0.51mm
12:24 36.4 °F /  2.4 °C 32.9 °F /  0.5 °C 29.56in /  1000.9hPa SSW 9.0mph /  14.5km/h 19.0mph /  30.6km/h 87% 0.02in /  0.51mm
12:29 36.3 °F /  2.4 °C 32.8 °F /  0.4 °C 29.56in /  1000.9hPa SW 10.0mph /  16.1km/h 17.0mph /  27.4km/h 87% 0.01in /  0.25mm
12:39 36.2 °F /  2.3 °C 32.7 °F /  0.4 °C 29.56in /  1000.9hPa WSW 6.0mph /  9.7km/h 16.0mph /  25.7km/h 87% 0.01in /  0.25mm
12:44 36.2 °F /  2.3 °C 32.7 °F /  0.4 °C 29.56in /  1000.9hPa WSW 7.0mph /  11.3km/h 24.0mph /  38.6km/h 87% 0.00in /  0mm
12:49 36.1 °F /  2.3 °C 32.6 °F /  0.3 °C 29.56in /  1000.9hPa SW 10.0mph /  16.1km/h 24.0mph /  38.6km/h 87% 0.00in /  0mm
12:54 36.0 °F /  2.2 °C 32.5 °F /  0.3 °C 29.57in /  1001.2hPa SW 10.0mph /  16.1km/h 23.0mph /  37km/h 87% 0.00in /  0mm
12:59 36.1 °F /  2.3 °C 32.6 °F /  0.3 °C 29.57in /  1001.2hPa SW 10.0mph /  16.1km/h 23.0mph /  37km/h 87% 0.00in /  0mm
13:04 36.0 °F /  2.2 °C 32.5 °F /  0.3 °C 29.57in /  1001.2hPa SW 7.0mph /  11.3km/h 20.0mph /  32.2km/h 87% 0.00in /  0mm
13:09 36.1 °F /  2.3 °C 32.6 °F /  0.3 °C 29.57in /  1001.2hPa SW 15.0mph /  24.1km/h 18.0mph /  29km/h 87% 0.00in /  0mm
13:14 36.2 °F /  2.3 °C 33.0 °F /  0.6 °C 29.57in /  1001.2hPa SW 9.0mph /  14.5km/h 19.0mph /  30.6km/h 88% 0.00in /  0mm
13:19 36.3 °F /  2.4 °C 33.1 °F /  0.6 °C 29.57in /  1001.2hPa WSW 8.0mph /  12.9km/h 19.0mph /  30.6km/h 88% 0.00in /  0mm
13:24 36.5 °F /  2.5 °C 33.3 °F /  0.7 °C 29.57in /  1001.2hPa WSW 10.0mph /  16.1km/h 19.0mph /  30.6km/h 88% 0.00in /  0mm
13:29 36.4 °F /  2.4 °C 33.2 °F /  0.7 °C 29.57in /  1001.2hPa SW 20.0mph /  32.2km/h 24.0mph /  38.6km/h 88% 0.00in /  0mm
13:34 36.4 °F /  2.4 °C 32.9 °F /  0.5 °C 29.57in /  1001.2hPa WSW 12.0mph /  19.3km/h 24.0mph /  38.6km/h 87% 0.00in /  0mm
13:39 36.4 °F /  2.4 °C 33.2 °F /  0.7 °C 29.57in /  1001.2hPa WSW 11.0mph /  17.7km/h 20.0mph /  32.2km/h 88% 0.00in /  0mm
13:44 36.3 °F /  2.4 °C 33.1 °F /  0.6 °C 29.57in /  1001.2hPa WSW 11.0mph /  17.7km/h 23.0mph /  37km/h 88% 0.00in /  0mm
13:49 36.4 °F /  2.4 °C 33.2 °F /  0.7 °C 29.57in /  1001.2hPa WSW 9.0mph /  14.5km/h 20.0mph /  32.2km/h 88% 0.00in /  0mm
13:59 36.7 °F /  2.6 °C 33.2 °F /  0.7 °C 29.57in /  1001.2hPa WSW 10.0mph /  16.1km/h 22.0mph /  35.4km/h 87% 0.00in /  0mm
14:09 36.7 °F /  2.6 °C 33.2 °F /  0.7 °C 29.57in /  1001.2hPa SW 18.0mph /  29km/h 24.0mph /  38.6km/h 87% 0.00in /  0mm
14:24 37.0 °F /  2.8 °C 33.2 °F /  0.7 °C 29.57in /  1001.2hPa SSW 15.0mph /  24.1km/h 19.0mph /  30.6km/h 86% 0.00in /  0mm
14:29 37.1 °F /  2.8 °C 33.3 °F /  0.7 °C 29.57in /  1001.2hPa WSW 7.0mph /  11.3km/h 20.0mph /  32.2km/h 86% 0.00in /  0mm
14:34 37.2 °F /  2.9 °C 33.4 °F /  0.8 °C 29.57in /  1001.2hPa WSW 11.0mph /  17.7km/h 20.0mph /  32.2km/h 86% 0.00in /  0mm
14:39 37.2 °F /  2.9 °C 33.4 °F /  0.8 °C 29.57in /  1001.2hPa WSW 11.0mph /  17.7km/h 20.0mph /  32.2km/h 86% 0.00in /  0mm
14:44 37.1 °F /  2.8 °C 33.3 °F /  0.7 °C 29.58in /  1001.6hPa WSW 11.0mph /  17.7km/h 21.0mph /  33.8km/h 86% 0.00in /  0mm
14:49 37.1 °F /  2.8 °C 33.3 °F /  0.7 °C 29.58in /  1001.6hPa WSW 7.0mph /  11.3km/h 25.0mph /  40.2km/h 86% 0.00in /  0mm
15:04 37.1 °F /  2.8 °C 33.3 °F /  0.7 °C 29.58in /  1001.6hPa WSW 11.0mph /  17.7km/h 23.0mph /  37km/h 86% 0.00in /  0mm
15:14 36.9 °F /  2.7 °C 33.1 °F /  0.6 °C 29.58in /  1001.6hPa SSW 15.0mph /  24.1km/h 21.0mph /  33.8km/h 86% 0.00in /  0mm
15:19 36.8 °F /  2.7 °C 33.0 °F /  0.6 °C 29.58in /  1001.6hPa WSW 11.0mph /  17.7km/h 21.0mph /  33.8km/h 86% 0.00in /  0mm
15:24 36.9 °F /  2.7 °C 32.8 °F /  0.4 °C 29.59in /  1001.9hPa WSW 8.0mph /  12.9km/h 22.0mph /  35.4km/h 85% 0.00in /  0mm
15:29 36.9 °F /  2.7 °C 32.8 °F /  0.4 °C 29.59in /  1001.9hPa WSW 13.0mph /  20.9km/h 20.0mph /  32.2km/h 85% 0.00in /  0mm
15:34 37.0 °F /  2.8 °C 32.9 °F /  0.5 °C 29.59in /  1001.9hPa SW 21.0mph /  33.8km/h 21.0mph /  33.8km/h 85% 0.00in /  0mm
15:39 36.9 °F /  2.7 °C 32.5 °F /  0.3 °C 29.59in /  1001.9hPa WSW 11.0mph /  17.7km/h 21.0mph /  33.8km/h 84% 0.00in /  0mm
15:44 36.9 °F /  2.7 °C 32.5 °F /  0.3 °C 29.59in /  1001.9hPa WSW 11.0mph /  17.7km/h 21.0mph /  33.8km/h 84% 0.00in /  0mm
15:49 36.8 °F /  2.7 °C 32.4 °F /  0.2 °C 29.60in /  1002.3hPa WSW 10.0mph /  16.1km/h 21.0mph /  33.8km/h 84% 0.00in /  0mm
15:54 36.7 °F /  2.6 °C 32.3 °F /  0.2 °C 29.59in /  1001.9hPa WSW 10.0mph /  16.1km/h 19.0mph /  30.6km/h 84% 0.00in /  0mm
15:59 36.7 °F /  2.6 °C 32.3 °F /  0.2 °C 29.60in /  1002.3hPa WSW 9.0mph /  14.5km/h 19.0mph /  30.6km/h 84% 0.00in /  0mm
16:04 36.6 °F /  2.6 °C 32.5 °F /  0.3 °C 29.60in /  1002.3hPa WSW 10.0mph /  16.1km/h 21.0mph /  33.8km/h 85% 0.00in /  0mm
16:09 36.5 °F /  2.5 °C 32.4 °F /  0.2 °C 29.60in /  1002.3hPa WSW 10.0mph /  16.1km/h 21.0mph /  33.8km/h 85% 0.00in /  0mm
16:14 36.4 °F /  2.4 °C 32.3 °F /  0.2 °C 29.60in /  1002.3hPa WSW 10.0mph /  16.1km/h 19.0mph /  30.6km/h 85% 0.00in /  0mm
16:19 36.2 °F /  2.3 °C 32.1 °F /  0.1 °C 29.60in /  1002.3hPa SW 13.0mph /  20.9km/h 20.0mph /  32.2km/h 85% 0.00in /  0mm
16:24 36.2 °F /  2.3 °C 32.4 °F /  0.2 °C 29.61in /  1002.6hPa SW 14.0mph /  22.5km/h 18.0mph /  29km/h 86% 0.00in /  0mm
16:29 36.1 °F /  2.3 °C 32.3 °F /  0.2 °C 29.61in /  1002.6hPa SW 12.0mph /  19.3km/h 20.0mph /  32.2km/h 86% 0.00in /  0mm
16:34 36.1 °F /  2.3 °C 32.3 °F /  0.2 °C 29.61in /  1002.6hPa SW 11.0mph /  17.7km/h 20.0mph /  32.2km/h 86% 0.00in /  0mm
16:39 36.0 °F /  2.2 °C 32.2 °F /  0.1 °C 29.61in /  1002.6hPa SW 18.0mph /  29km/h 23.0mph /  37km/h 86% 0.00in /  0mm
16:54 35.9 °F /  2.2 °C 32.1 °F /  0.1 °C 29.61in /  1002.6hPa WSW 13.0mph /  20.9km/h 26.0mph /  41.8km/h 86% 0.01in /  0.25mm
16:59 35.8 °F /  2.1 °C 32.0 °F /  0 °C 29.61in /  1002.6hPa WSW 14.0mph /  22.5km/h 27.0mph /  43.5km/h 86% 0.01in /  0.25mm
17:04 35.7 °F /  2.1 °C 31.9 °F /  -0.1 °C 29.61in /  1002.6hPa WSW 15.0mph /  24.1km/h 29.0mph /  46.7km/h 86% 0.01in /  0.25mm
17:09 35.6 °F /  2 °C 31.8 °F /  -0.1 °C 29.61in /  1002.6hPa WSW 14.0mph /  22.5km/h 29.0mph /  46.7km/h 86% 0.01in /  0.25mm
17:19 35.6 °F /  2 °C 32.1 °F /  0.1 °C 29.62in /  1002.9hPa WSW 14.0mph /  22.5km/h 32.0mph /  51.5km/h 87% 0.01in /  0.25mm
17:24 35.6 °F /  2 °C 32.1 °F /  0.1 °C 29.62in /  1002.9hPa West 16.0mph /  25.7km/h 21.0mph /  33.8km/h 87% 0.01in /  0.25mm
17:29 35.5 °F /  1.9 °C 32.0 °F /  0 °C 29.62in /  1002.9hPa WSW 16.0mph /  25.7km/h 24.0mph /  38.6km/h 87% 0.01in /  0.25mm
17:34 35.5 °F /  1.9 °C 32.0 °F /  0 °C 29.61in /  1002.6hPa SW 13.0mph /  20.9km/h 28.0mph /  45.1km/h 87% 0.01in /  0.25mm
17:39 35.6 °F /  2 °C 32.1 °F /  0.1 °C 29.62in /  1002.9hPa SW 16.0mph /  25.7km/h 30.0mph /  48.3km/h 87% 0.01in /  0.25mm
17:49 35.7 °F /  2.1 °C 31.9 °F /  -0.1 °C 29.62in /  1002.9hPa SW 14.0mph /  22.5km/h 34.0mph /  54.7km/h 86% 0.01in /  0.25mm
17:54 35.9 °F /  2.2 °C 32.1 °F /  0.1 °C 29.62in /  1002.9hPa WSW 16.0mph /  25.7km/h 34.0mph /  54.7km/h 86% 0.00in /  0mm
17:59 36.0 °F /  2.2 °C 32.2 °F /  0.1 °C 29.62in /  1002.9hPa WSW 16.0mph /  25.7km/h 32.0mph /  51.5km/h 86% 0.00in /  0mm
18:09 36.1 °F /  2.3 °C 32.0 °F /  0 °C 29.63in /  1003.3hPa WSW 16.0mph /  25.7km/h 31.0mph /  49.9km/h 85% 0.00in /  0mm
18:14 36.1 °F /  2.3 °C 32.0 °F /  0 °C 29.63in /  1003.3hPa WSW 15.0mph /  24.1km/h 29.0mph /  46.7km/h 85% 0.00in /  0mm
18:19 36.0 °F /  2.2 °C 31.6 °F /  -0.2 °C 29.63in /  1003.3hPa WSW 16.0mph /  25.7km/h 32.0mph /  51.5km/h 84% 0.00in /  0mm
18:24 35.9 °F /  2.2 °C 31.5 °F /  -0.3 °C 29.63in /  1003.3hPa WSW 12.0mph /  19.3km/h 32.0mph /  51.5km/h 84% 0.00in /  0mm
18:29 35.6 °F /  2 °C 31.2 °F /  -0.4 °C 29.64in /  1003.6hPa South 20.0mph /  32.2km/h 28.0mph /  45.1km/h 84% 0.00in /  0mm
18:34 35.5 °F /  1.9 °C 31.1 °F /  -0.5 °C 29.64in /  1003.6hPa SW 10.0mph /  16.1km/h 23.0mph /  37km/h 84% 0.00in /  0mm
18:39 35.5 °F /  1.9 °C 31.1 °F /  -0.5 °C 29.64in /  1003.6hPa WSW 20.0mph /  32.2km/h 27.0mph /  43.5km/h 84% 0.00in /  0mm
18:44 35.5 °F /  1.9 °C 30.8 °F /  -0.7 °C 29.64in /  1003.6hPa SW 10.0mph /  16.1km/h 30.0mph /  48.3km/h 83% 0.00in /  0mm
18:49 35.5 °F /  1.9 °C 30.8 °F /  -0.7 °C 29.64in /  1003.6hPa WSW 14.0mph /  22.5km/h 24.0mph /  38.6km/h 83% 0.00in /  0mm
18:54 35.4 °F /  1.9 °C 30.8 °F /  -0.7 °C 29.65in /  1003.9hPa WSW 22.0mph /  35.4km/h 26.0mph /  41.8km/h 83% 0.00in /  0mm
18:59 35.2 °F /  1.8 °C 30.6 °F /  -0.8 °C 29.65in /  1003.9hPa SW 12.0mph /  19.3km/h 33.0mph /  53.1km/h 83% 0.00in /  0mm
19:04 35.1 °F /  1.7 °C 30.5 °F /  -0.8 °C 29.65in /  1003.9hPa WSW 15.0mph /  24.1km/h 33.0mph /  53.1km/h 83% 0.00in /  0mm
19:14 35.0 °F /  1.7 °C 30.4 °F /  -0.9 °C 29.66in /  1004.3hPa WSW 16.0mph /  25.7km/h 31.0mph /  49.9km/h 83% 0.00in /  0mm
19:19 34.8 °F /  1.6 °C 30.2 °F /  -1 °C 29.66in /  1004.3hPa WSW 16.0mph /  25.7km/h 31.0mph /  49.9km/h 83% 0.00in /  0mm
19:24 34.8 °F /  1.6 °C 30.2 °F /  -1 °C 29.66in /  1004.3hPa WSW 11.0mph /  17.7km/h 26.0mph /  41.8km/h 83% 0.00in /  0mm
19:29 34.7 °F /  1.5 °C 30.4 °F /  -0.9 °C 29.67in /  1004.6hPa WSW 10.0mph /  16.1km/h 33.0mph /  53.1km/h 84% 0.00in /  0mm
19:39 34.4 °F /  1.3 °C 30.1 °F /  -1.1 °C 29.67in /  1004.6hPa WSW 14.0mph /  22.5km/h 29.0mph /  46.7km/h 84% 0.00in /  0mm
19:44 34.3 °F /  1.3 °C 30.0 °F /  -1.1 °C 29.67in /  1004.6hPa WSW 15.0mph /  24.1km/h 34.0mph /  54.7km/h 84% 0.00in /  0mm
19:49 34.2 °F /  1.2 °C 29.9 °F /  -1.2 °C 29.68in /  1005hPa WSW 16.0mph /  25.7km/h 34.0mph /  54.7km/h 84% 0.00in /  0mm
19:54 34.1 °F /  1.2 °C 29.8 °F /  -1.2 °C 29.69in /  1005.3hPa SW 15.0mph /  24.1km/h 30.0mph /  48.3km/h 84% 0.00in /  0mm
20:04 33.8 °F /  1 °C 29.8 °F /  -1.2 °C 29.69in /  1005.3hPa SW 10.0mph /  16.1km/h 25.0mph /  40.2km/h 85% 0.00in /  0mm
20:09 33.7 °F /  0.9 °C 29.7 °F /  -1.3 °C 29.69in /  1005.3hPa WSW 12.0mph /  19.3km/h 27.0mph /  43.5km/h 85% 0.00in /  0mm
Buffalo, New York, USA
Compliments of Weather Underground - 2 mb